createdAt,value
2023-03-27T00:00:16.631Z,3.02
2023-03-27T00:02:47.065Z,3.06
2023-03-27T00:05:14.980Z,3.08
2023-03-27T00:07:42.732Z,3.12
2023-03-27T00:10:13.054Z,3.13
2023-03-27T00:12:40.931Z,3.13
2023-03-27T00:15:09.800Z,3.10
2023-03-27T00:17:37.637Z,3.02
2023-03-27T00:20:06.711Z,2.97
2023-03-27T00:22:34.517Z,2.95
2023-03-27T00:25:02.332Z,2.99
2023-03-27T00:27:31.544Z,2.92
2023-03-27T00:29:59.493Z,2.84
2023-03-27T00:32:27.434Z,2.82
2023-03-27T00:34:55.209Z,2.82
2023-03-27T00:37:23.587Z,2.76
2023-03-27T00:39:51.339Z,2.71
2023-03-27T00:42:22.888Z,2.67
2023-03-27T00:44:53.149Z,2.68
2023-03-27T00:47:28.873Z,2.68
2023-03-27T00:49:56.880Z,2.67
2023-03-27T00:52:29.556Z,2.64
2023-03-27T00:54:59.659Z,2.69
2023-03-27T00:57:27.831Z,2.71
2023-03-27T00:59:59.906Z,2.68
2023-03-27T01:02:28.627Z,2.66
2023-03-27T01:04:57.927Z,2.66
2023-03-27T01:07:25.943Z,2.64
2023-03-27T01:09:53.803Z,2.58
2023-03-27T01:12:35.365Z,2.53
2023-03-27T01:15:16.386Z,2.50
2023-03-27T01:17:59.852Z,2.54
2023-03-27T01:20:59.660Z,2.54
2023-03-27T01:24:12.738Z,2.56
2023-03-27T01:26:57.956Z,2.66
2023-03-27T01:29:37.042Z,2.76
2023-03-27T01:32:45.954Z,2.75
2023-03-27T01:35:48.020Z,2.79
2023-03-27T01:39:07.338Z,2.74
2023-03-27T01:41:43.060Z,2.57
2023-03-27T01:44:18.204Z,2.46
2023-03-27T01:46:52.235Z,2.40
2023-03-27T01:49:24.923Z,2.33
2023-03-27T01:51:57.248Z,2.24
2023-03-27T01:54:29.188Z,2.24
2023-03-27T01:57:04.713Z,2.25
2023-03-27T01:59:37.665Z,2.25
2023-03-27T02:02:12.862Z,2.20
2023-03-27T02:04:46.990Z,2.13
2023-03-27T02:07:23.144Z,2.12
2023-03-27T02:09:54.250Z,2.08
2023-03-27T02:12:28.894Z,2.04
2023-03-27T02:15:24.839Z,2.01
2023-03-27T02:17:51.015Z,1.97
2023-03-27T02:20:21.029Z,1.87
2023-03-27T02:22:49.383Z,1.95
2023-03-27T02:25:29.890Z,1.86
2023-03-27T02:28:11.018Z,1.89
2023-03-27T02:30:46.216Z,1.87
2023-03-27T02:33:45.000Z,1.91
2023-03-27T02:36:23.447Z,1.92
2023-03-27T02:38:58.317Z,1.99
2023-03-27T02:41:31.714Z,1.97
2023-03-27T02:44:09.425Z,2.09
2023-03-27T02:46:42.923Z,2.11
2023-03-27T02:49:15.484Z,2.07
2023-03-27T02:51:49.066Z,2.00
2023-03-27T02:54:21.207Z,1.91
2023-03-27T02:56:53.893Z,1.88
2023-03-27T02:59:26.530Z,1.87
2023-03-27T03:01:54.929Z,1.84
2023-03-27T03:04:28.308Z,1.80
2023-03-27T03:06:56.953Z,1.74
2023-03-27T03:09:25.960Z,1.73
2023-03-27T03:11:55.973Z,1.66
2023-03-27T03:14:29.168Z,1.48
2023-03-27T03:16:57.021Z,1.50
2023-03-27T03:19:25.013Z,1.49
2023-03-27T03:21:52.855Z,1.38
2023-03-27T03:24:21.980Z,1.27
2023-03-27T03:26:50.771Z,1.24
2023-03-27T03:29:19.023Z,1.21
2023-03-27T03:31:49.665Z,1.17
2023-03-27T03:34:19.366Z,1.08
2023-03-27T03:36:49.775Z,1.08
2023-03-27T03:39:18.691Z,0.95
2023-03-27T03:41:46.444Z,0.98
2023-03-27T03:44:14.268Z,0.93
2023-03-27T03:46:42.393Z,0.92
2023-03-27T03:49:11.598Z,0.93
2023-03-27T03:51:39.443Z,0.79
2023-03-27T03:54:09.102Z,0.80
2023-03-27T03:56:37.333Z,0.75
2023-03-27T03:59:05.308Z,0.75
2023-03-27T04:01:33.590Z,0.74
2023-03-27T04:04:02.199Z,0.68
2023-03-27T04:06:32.586Z,0.66
2023-03-27T04:09:00.513Z,0.61
2023-03-27T04:11:28.397Z,0.59
2023-03-27T04:13:56.290Z,0.62
2023-03-27T04:16:24.309Z,0.59
2023-03-27T04:18:55.168Z,0.56
2023-03-27T04:21:26.545Z,0.56
2023-03-27T04:24:02.194Z,0.49
2023-03-27T04:26:30.316Z,0.40
2023-03-27T04:28:58.432Z,0.43
2023-03-27T04:31:26.560Z,0.41
2023-03-27T04:33:54.328Z,0.35
2023-03-27T04:36:22.619Z,0.30
2023-03-27T04:38:50.468Z,0.26
2023-03-27T04:41:21.209Z,0.30
2023-03-27T04:43:49.002Z,0.33
2023-03-27T04:46:16.832Z,0.37
2023-03-27T04:48:44.656Z,0.28
2023-03-27T04:51:12.413Z,0.25
2023-03-27T04:53:43.076Z,0.23
2023-03-27T04:56:11.118Z,0.21
2023-03-27T04:58:41.653Z,0.18
2023-03-27T05:01:10.112Z,0.18
2023-03-27T05:03:39.071Z,0.14
2023-03-27T05:06:08.428Z,0.21
2023-03-27T05:08:36.458Z,0.19
2023-03-27T05:11:04.400Z,0.23
2023-03-27T05:13:32.307Z,0.24
2023-03-27T05:16:02.017Z,0.28
2023-03-27T05:18:30.746Z,0.38
2023-03-27T05:20:59.169Z,0.45
2023-03-27T05:23:27.234Z,0.53
2023-03-27T05:26:00.725Z,0.79
2023-03-27T05:28:29.246Z,1.12
2023-03-27T05:30:57.540Z,1.36
2023-03-27T05:33:27.131Z,1.70
2023-03-27T05:35:54.922Z,1.83
2023-03-27T05:38:24.517Z,1.99
2023-03-27T05:40:53.317Z,2.03
2023-03-27T05:43:21.304Z,1.97
2023-03-27T05:45:49.277Z,2.06
2023-03-27T05:48:17.390Z,2.04
2023-03-27T05:50:47.027Z,2.11
2023-03-27T05:53:15.657Z,2.48
2023-03-27T05:55:43.487Z,3.03
2023-03-27T05:58:13.371Z,3.21
2023-03-27T06:00:43.090Z,3.52
2023-03-27T06:03:13.518Z,3.29
2023-03-27T06:05:42.116Z,2.97
2023-03-27T06:08:11.751Z,2.78
2023-03-27T06:10:43.250Z,2.69
2023-03-27T06:13:13.618Z,2.82
2023-03-27T06:15:43.373Z,2.88
2023-03-27T06:18:11.877Z,2.80
2023-03-27T06:20:40.094Z,2.90
2023-03-27T06:23:09.367Z,2.98
2023-03-27T06:25:40.054Z,3.04
2023-03-27T06:28:09.722Z,3.03
2023-03-27T06:30:38.735Z,3.56
2023-03-27T06:33:08.020Z,4.05
2023-03-27T06:35:36.976Z,3.74
2023-03-27T06:38:04.776Z,3.85
2023-03-27T06:40:35.573Z,5.06
2023-03-27T06:43:07.282Z,5.98
2023-03-27T06:45:38.151Z,7.15
2023-03-27T06:48:15.088Z,7.38
2023-03-27T06:50:49.180Z,7.57
2023-03-27T06:55:49.283Z,8.13
2023-03-27T06:58:20.500Z,8.44
2023-03-27T07:00:50.455Z,9.01
2023-03-27T07:03:20.104Z,8.59
2023-03-27T07:05:49.055Z,7.65
2023-03-27T07:08:23.367Z,6.74
2023-03-27T07:11:03.884Z,6.11
2023-03-27T07:13:41.476Z,6.09
2023-03-27T07:16:11.405Z,6.57
2023-03-27T07:18:39.162Z,5.93
2023-03-27T07:21:08.257Z,5.86
2023-03-27T07:23:36.139Z,5.49
2023-03-27T07:26:04.115Z,4.88
2023-03-27T07:28:32.907Z,5.03
2023-03-27T07:31:16.516Z,5.45
2023-03-27T07:33:53.766Z,5.79
2023-03-27T08:16:40.229Z,7.67
2023-03-27T08:24:52.938Z,6.00
2023-03-27T08:27:20.915Z,5.93
2023-03-27T08:29:49.265Z,6.11
2023-03-27T08:32:17.167Z,6.14
2023-03-27T08:34:45.765Z,5.88
2023-03-27T08:37:15.048Z,5.73
2023-03-27T08:39:42.847Z,5.51
2023-03-27T08:42:19.048Z,5.82
2023-03-27T08:44:48.315Z,5.94
2023-03-27T08:47:20.685Z,5.86
2023-03-27T08:49:53.760Z,6.10
2023-03-27T08:52:25.868Z,6.01
2023-03-27T08:54:58.543Z,6.08
2023-03-27T08:57:28.253Z,6.11
2023-03-27T09:00:00.312Z,5.92
2023-03-27T09:02:37.390Z,6.00
2023-03-27T09:05:11.265Z,6.06
2023-03-27T09:07:48.090Z,5.96
2023-03-27T09:10:25.073Z,6.00
2023-03-27T09:13:04.260Z,6.05
2023-03-27T09:15:38.100Z,6.33
2023-03-27T09:18:11.940Z,6.26
2023-03-27T09:20:43.839Z,6.28
2023-03-27T09:23:20.538Z,5.90
2023-03-27T09:25:53.599Z,5.31
2023-03-27T09:28:23.566Z,5.48
2023-03-27T09:30:52.736Z,5.46
2023-03-27T09:33:20.620Z,5.83
2023-03-27T09:35:48.659Z,6.13
2023-03-27T09:38:33.229Z,6.34
2023-03-27T09:41:04.324Z,6.65
2023-03-27T09:43:42.515Z,6.78
2023-03-27T09:46:12.037Z,6.67
2023-03-27T09:48:50.299Z,6.73
2023-03-27T09:51:38.849Z,6.92
2023-03-27T09:54:08.931Z,6.79
2023-03-27T09:56:39.379Z,6.71
2023-03-27T09:59:21.747Z,7.03
2023-03-27T10:01:51.305Z,6.81
2023-03-27T10:04:21.846Z,9.16
2023-03-27T10:06:57.672Z,10.90
2023-03-27T10:09:29.304Z,12.27
2023-03-27T10:12:10.529Z,12.45
2023-03-27T10:14:41.973Z,12.58
2023-03-27T10:17:22.728Z,10.43
2023-03-27T10:19:54.968Z,8.86
2023-03-27T10:22:29.542Z,7.93
2023-03-27T10:25:04.742Z,7.27
2023-03-27T10:27:35.878Z,7.15
2023-03-27T10:30:04.406Z,7.69
2023-03-27T10:32:45.387Z,7.42
2023-03-27T10:35:24.044Z,7.58
2023-03-27T10:37:52.827Z,7.83
2023-03-27T10:40:25.658Z,7.28
2023-03-27T10:42:57.307Z,7.46
2023-03-27T10:45:25.571Z,6.78
2023-03-27T10:47:56.857Z,7.05
2023-03-27T10:50:30.280Z,7.26
2023-03-27T10:53:07.346Z,7.19
2023-03-27T10:55:51.868Z,6.65
2023-03-27T10:58:28.466Z,6.77
2023-03-27T11:01:02.818Z,6.82
2023-03-27T11:03:38.650Z,6.88
2023-03-27T11:06:13.288Z,6.74
2023-03-27T11:08:52.939Z,6.49
2023-03-27T11:11:27.263Z,6.62
2023-03-27T11:13:59.479Z,6.70
2023-03-27T11:16:32.956Z,6.90
2023-03-27T11:19:13.907Z,6.92
2023-03-27T11:21:45.959Z,6.84
2023-03-27T11:24:21.316Z,6.82
2023-03-27T11:26:57.322Z,6.95
2023-03-27T11:29:29.416Z,7.12
2023-03-27T11:32:06.069Z,7.30
2023-03-27T11:34:39.139Z,7.08
2023-03-27T11:37:17.943Z,7.44
2023-03-27T11:39:50.685Z,7.25
2023-03-27T11:42:24.045Z,7.15
2023-03-27T11:44:52.515Z,6.68
2023-03-27T11:47:43.575Z,6.84
2023-03-27T11:50:41.216Z,7.26
2023-03-27T11:53:42.111Z,7.19
2023-03-27T11:56:25.522Z,6.77
2023-03-27T11:59:11.080Z,7.11
2023-03-27T12:01:46.424Z,7.37
2023-03-27T12:04:41.636Z,8.00
2023-03-27T12:07:33.964Z,8.05
2023-03-27T12:10:27.421Z,8.18
2023-03-27T12:13:28.714Z,8.30
2023-03-27T12:16:16.976Z,8.07
2023-03-27T12:19:03.783Z,7.99
2023-03-27T12:21:54.209Z,7.65
2023-03-27T12:24:53.452Z,7.13
2023-03-27T12:27:42.183Z,6.38
2023-03-27T12:30:33.339Z,6.35
2023-03-27T12:33:17.649Z,6.20
2023-03-27T12:35:49.456Z,5.70
2023-03-27T12:38:24.632Z,5.83
2023-03-27T12:41:03.912Z,5.79
2023-03-27T12:43:39.631Z,5.68
2023-03-27T12:46:10.896Z,5.74
2023-03-27T12:48:51.929Z,5.91
2023-03-27T12:51:20.421Z,5.82
2023-03-27T12:53:51.781Z,5.81
2023-03-27T12:56:27.352Z,5.58
2023-03-27T12:58:57.608Z,5.60
2023-03-27T13:01:51.859Z,5.63
2023-03-27T13:04:52.935Z,5.65
2023-03-27T13:07:27.610Z,5.65
2023-03-27T13:10:14.665Z,5.46
2023-03-27T13:13:09.223Z,5.63
2023-03-27T13:15:56.682Z,5.72
2023-03-27T13:18:37.050Z,5.52
2023-03-27T13:21:19.157Z,5.76
2023-03-27T13:24:17.082Z,5.78
2023-03-27T13:26:59.667Z,5.70
2023-03-27T13:29:32.973Z,5.81
2023-03-27T13:32:03.848Z,5.51
2023-03-27T13:34:38.116Z,5.49
2023-03-27T13:37:43.061Z,5.65
2023-03-27T13:40:24.672Z,5.89
2023-03-27T13:42:57.618Z,5.78
2023-03-27T13:45:30.115Z,6.03
2023-03-27T13:48:34.378Z,6.10
2023-03-27T13:51:24.172Z,6.05
2023-03-27T13:54:04.116Z,6.35
2023-03-27T13:56:54.968Z,6.65
2023-03-27T13:59:54.659Z,6.78
2023-03-27T14:02:55.434Z,6.96
2023-03-27T14:05:36.891Z,6.60
2023-03-27T14:08:32.478Z,6.92
2023-03-27T14:11:16.472Z,6.98
2023-03-27T14:14:04.352Z,7.11
2023-03-27T14:16:56.756Z,7.24
2023-03-27T14:20:02.094Z,7.03
2023-03-27T14:22:37.891Z,7.17
2023-03-27T14:25:11.116Z,6.99
2023-03-27T14:27:42.200Z,6.98
2023-03-27T14:30:17.397Z,6.86
2023-03-27T14:32:46.969Z,6.64
2023-03-27T14:35:28.063Z,6.76
2023-03-27T14:38:00.045Z,6.94
2023-03-27T14:40:31.716Z,7.00
2023-03-27T14:43:01.690Z,6.94
2023-03-27T14:45:33.879Z,6.78
2023-03-27T14:48:05.012Z,6.91
2023-03-27T14:50:34.494Z,6.83
2023-03-27T14:53:08.779Z,6.85
2023-03-27T14:55:40.013Z,6.55
2023-03-27T14:58:14.342Z,6.82
2023-03-27T15:00:44.091Z,7.06
2023-03-27T15:03:16.400Z,7.05
2023-03-27T15:05:57.272Z,7.25
2023-03-27T15:08:28.660Z,7.26
2023-03-27T15:10:56.653Z,7.30
2023-03-27T15:13:28.177Z,7.29
2023-03-27T15:15:59.311Z,7.15
2023-03-27T15:18:32.958Z,7.05
2023-03-27T15:21:04.635Z,6.90
2023-03-27T15:23:42.879Z,6.92
2023-03-27T15:26:19.159Z,6.72
2023-03-27T15:28:53.676Z,6.62
2023-03-27T15:31:25.660Z,6.60
2023-03-27T15:34:02.191Z,5.84
2023-03-27T15:36:33.072Z,5.29
2023-03-27T15:39:02.612Z,4.93
2023-03-27T15:41:43.895Z,4.51
2023-03-27T15:44:18.974Z,4.16
2023-03-27T15:46:57.994Z,3.87
2023-03-27T15:49:29.629Z,3.68
2023-03-27T15:51:58.798Z,3.77
2023-03-27T15:54:32.986Z,3.94
2023-03-27T15:57:09.122Z,3.99
2023-03-27T15:59:52.643Z,4.22
2023-03-27T16:02:25.980Z,4.67
2023-03-27T16:04:57.056Z,4.89
2023-03-27T16:07:30.136Z,5.16
2023-03-27T16:10:02.276Z,5.19
2023-03-27T16:12:34.796Z,5.20
2023-03-27T16:15:08.310Z,5.11
2023-03-27T16:17:45.900Z,5.12
2023-03-27T16:20:35.694Z,4.86
2023-03-27T16:23:04.375Z,4.88
2023-03-27T16:25:32.227Z,4.78
2023-03-27T16:28:00.123Z,4.71
2023-03-27T16:30:32.026Z,4.75
2023-03-27T16:33:01.640Z,4.58
2023-03-27T16:35:31.111Z,4.57
2023-03-27T16:37:59.839Z,4.56
2023-03-27T16:40:27.620Z,4.51
2023-03-27T16:42:55.568Z,4.45
2023-03-27T16:45:23.447Z,4.46
2023-03-27T16:47:53.373Z,4.46
2023-03-27T16:50:26.734Z,4.49
2023-03-27T16:52:54.711Z,4.50
2023-03-27T16:55:22.864Z,4.48
2023-03-27T16:57:52.357Z,4.48
2023-03-27T17:00:21.279Z,4.45
2023-03-27T17:02:49.137Z,4.47
2023-03-27T17:05:16.971Z,4.44
2023-03-27T17:07:47.007Z,4.47
2023-03-27T17:10:14.917Z,4.44
2023-03-27T17:13:10.459Z,4.34
2023-03-27T17:15:38.826Z,4.31
2023-03-27T17:18:07.592Z,4.31
2023-03-27T17:20:35.846Z,4.25
2023-03-27T17:23:04.979Z,4.19
2023-03-27T17:25:32.894Z,4.11
2023-03-27T17:28:00.734Z,3.98
2023-03-27T17:30:38.469Z,3.94
2023-03-27T17:33:09.084Z,3.82
2023-03-27T17:35:39.654Z,3.75
2023-03-27T17:38:10.220Z,3.66
2023-03-27T17:40:41.153Z,3.62
2023-03-27T17:43:08.983Z,3.62
2023-03-27T17:45:40.811Z,3.57
2023-03-27T17:48:08.949Z,3.64
2023-03-27T17:50:36.719Z,3.66
2023-03-27T17:53:04.782Z,3.63
2023-03-27T17:55:33.955Z,3.69
2023-03-27T17:58:08.378Z,3.70
2023-03-27T18:00:37.454Z,3.63
2023-03-27T18:03:06.369Z,3.60
2023-03-27T18:05:37.424Z,3.57
2023-03-27T18:08:05.952Z,3.56
2023-03-27T18:10:35.667Z,3.52
2023-03-27T18:13:03.673Z,3.56
2023-03-27T18:15:31.480Z,3.56
2023-03-27T18:17:59.251Z,3.57
2023-03-27T18:20:27.172Z,3.47
2023-03-27T18:22:55.056Z,3.37
2023-03-27T18:25:22.996Z,3.27
2023-03-27T18:27:52.293Z,3.22
2023-03-27T18:30:20.319Z,3.16
2023-03-27T18:32:49.325Z,3.05
2023-03-27T18:35:19.756Z,2.99
2023-03-27T18:37:48.070Z,2.97
2023-03-27T18:40:18.289Z,2.88
2023-03-27T18:42:46.550Z,2.86
2023-03-27T18:45:17.701Z,2.80
2023-03-27T18:47:46.085Z,2.80
2023-03-27T18:50:15.588Z,2.75
2023-03-27T18:52:44.086Z,2.76
2023-03-27T18:55:13.003Z,2.77
2023-03-27T18:57:40.769Z,2.80
2023-03-27T19:00:09.923Z,2.83
2023-03-27T19:02:39.270Z,2.89
2023-03-27T19:05:08.567Z,2.82
2023-03-27T19:07:37.424Z,2.84
2023-03-27T19:10:12.884Z,2.90
2023-03-27T19:12:40.823Z,2.89
2023-03-27T19:15:19.454Z,2.86
2023-03-27T19:17:49.685Z,2.75
2023-03-27T19:20:17.563Z,2.73
2023-03-27T19:22:45.385Z,2.74
2023-03-27T19:25:13.381Z,2.70
2023-03-27T19:27:41.323Z,2.65
2023-03-27T19:30:11.192Z,2.57
2023-03-27T19:32:39.175Z,2.68
2023-03-27T19:35:12.266Z,2.74
2023-03-27T19:37:40.582Z,2.66
2023-03-27T19:40:10.492Z,2.73
2023-03-27T19:42:38.312Z,2.79
2023-03-27T19:45:06.970Z,2.82
2023-03-27T19:47:34.933Z,2.92
2023-03-27T19:50:02.785Z,2.89
2023-03-27T19:52:32.464Z,2.81
2023-03-27T19:55:00.279Z,2.72
2023-03-27T19:57:28.231Z,2.55
2023-03-27T19:59:56.119Z,2.44
2023-03-27T20:02:23.967Z,2.40
2023-03-27T20:04:51.846Z,2.32
2023-03-27T20:07:19.548Z,2.34
2023-03-27T20:09:48.816Z,2.24
2023-03-27T20:12:18.265Z,2.16
2023-03-27T20:14:58.170Z,2.17
2023-03-27T20:17:34.629Z,2.21
2023-03-27T20:20:02.580Z,2.19
2023-03-27T20:22:31.034Z,2.20
2023-03-27T20:25:00.614Z,2.32
2023-03-27T20:27:28.399Z,2.37
2023-03-27T20:29:56.279Z,2.44
2023-03-27T20:32:24.124Z,2.53
2023-03-27T20:34:52.293Z,2.57
2023-03-27T20:37:20.517Z,2.65
2023-03-27T20:39:48.327Z,2.74
2023-03-27T20:42:23.026Z,2.81
2023-03-27T20:44:55.177Z,2.83
2023-03-27T20:47:23.645Z,2.90
2023-03-27T20:49:51.711Z,2.85
2023-03-27T20:52:22.746Z,2.81
2023-03-27T20:54:50.847Z,2.65
2023-03-27T20:57:21.702Z,2.58
2023-03-27T20:59:49.627Z,2.53
2023-03-27T21:02:19.486Z,2.44
2023-03-27T21:04:47.789Z,2.35
2023-03-27T21:07:16.846Z,2.23
2023-03-27T21:09:44.692Z,2.11
2023-03-27T21:12:12.857Z,2.05
2023-03-27T21:14:42.107Z,1.97
2023-03-27T21:17:09.862Z,1.82
2023-03-27T21:19:37.649Z,1.77
2023-03-27T21:22:05.400Z,1.66
2023-03-27T21:24:33.177Z,1.62
2023-03-27T21:27:01.171Z,1.56
2023-03-27T21:29:28.950Z,1.53
2023-03-27T21:31:58.217Z,1.52
2023-03-27T21:34:26.136Z,1.52
2023-03-27T21:36:53.984Z,1.54
2023-03-27T21:39:21.876Z,1.47
2023-03-27T21:41:49.608Z,1.52
2023-03-27T21:44:17.337Z,1.44
2023-03-27T21:46:45.164Z,1.52
2023-03-27T21:49:14.394Z,1.57
2023-03-27T21:51:42.225Z,1.59
2023-03-27T21:54:10.097Z,1.70
2023-03-27T21:56:37.984Z,1.69
2023-03-27T21:59:05.874Z,1.79
2023-03-27T22:01:33.843Z,1.78
2023-03-27T22:04:02.324Z,1.87
2023-03-27T22:06:31.838Z,1.91
2023-03-27T22:08:59.612Z,1.85
2023-03-27T22:11:27.534Z,1.91
2023-03-27T22:13:55.267Z,1.94
2023-03-27T22:16:23.404Z,2.03
2023-03-27T22:18:51.302Z,2.06
2023-03-27T22:21:22.089Z,2.10
2023-03-27T22:23:52.503Z,2.03
2023-03-27T22:26:21.476Z,2.15
2023-03-27T22:28:49.403Z,2.12
2023-03-27T22:31:17.276Z,2.17
2023-03-27T22:33:45.514Z,2.08
2023-03-27T22:36:13.987Z,2.05
2023-03-27T22:38:42.949Z,2.10
2023-03-27T22:41:14.084Z,2.18
2023-03-27T22:43:42.300Z,2.12
2023-03-27T22:46:12.716Z,2.17
2023-03-27T22:48:40.797Z,2.15
2023-03-27T22:51:09.649Z,2.08
2023-03-27T22:53:37.943Z,2.08
2023-03-27T22:56:07.456Z,2.00
2023-03-27T22:58:36.920Z,2.11
2023-03-27T23:01:06.002Z,2.15
2023-03-27T23:03:34.284Z,2.21
2023-03-27T23:06:02.517Z,2.20
2023-03-27T23:08:30.737Z,2.20
2023-03-27T23:11:00.347Z,2.19
2023-03-27T23:13:30.043Z,2.18
2023-03-27T23:16:00.265Z,2.19
2023-03-27T23:18:28.306Z,2.12
2023-03-27T23:20:57.005Z,2.19
2023-03-27T23:23:26.387Z,2.22
2023-03-27T23:25:54.586Z,2.13
2023-03-27T23:28:23.115Z,2.13
2023-03-27T23:30:54.649Z,2.18
2023-03-27T23:33:25.046Z,2.17
2023-03-27T23:35:53.919Z,2.19
2023-03-27T23:38:21.863Z,2.10
2023-03-27T23:40:55.713Z,1.67
2023-03-27T23:43:23.770Z,1.41
2023-03-27T23:45:51.752Z,1.13
2023-03-27T23:48:19.676Z,1.19
2023-03-27T23:50:49.555Z,1.28
2023-03-27T23:53:17.313Z,1.16
2023-03-27T23:55:45.739Z,1.01
2023-03-27T23:58:13.489Z,0.96
